This is the latest recevied weather packets stored in our database for station/object DN9EM-1. If no packets are shown the sender has not sent any weather packets the latest 1 day(s).
| Time | Temp. | Humidity | Pressure | Rain* | Wind** | Luminosity | Snow |
|---|---|---|---|---|---|---|---|
| 1777973728 | 13.33° C | 67% | 1013.4 hPa | 0 mm | 0.45 m/s, 6° | - | - |
| 1777973126 | 13.33° C | 66% | 1013.4 hPa | 0 mm | 0 m/s | - | - |
| 1777972523 | 13.33° C | 66% | 1013.5 hPa | 0 mm | 0 m/s | - | - |
| 1777971921 | 13.33° C | 65% | 1013.7 hPa | 0 mm | 0.45 m/s, 10° | - | - |
| 1777971318 | 12.78° C | 67% | 1013.6 hPa | 0 mm | 0.45 m/s, 124° | - | - |
| 1777970716 | 13.33° C | 65% | 1013.7 hPa | 0 mm | 0.45 m/s, 15° | - | - |
| 1777970173 | 12.22° C | 70% | 1013.8 hPa | 0 mm | 0 m/s | - | - |
| 1777969571 | 12.78° C | 69% | 1013.7 hPa | 0 mm | 0 m/s | - | - |
| 1777968968 | 12.78° C | 69% | 1013.7 hPa | 0 mm | 0 m/s | - | - |
| 1777968366 | 11.67° C | 73% | 1013.7 hPa | 0 mm | 0 m/s | - | - |
| 1777967763 | 10.56° C | 76% | 1013.8 hPa | 0 mm | 0 m/s | - | - |
| 1777966558 | 10° C | 78% | 1013.7 hPa | 0 mm | 0 m/s | - | - |
| 1777965956 | 10° C | 78% | 1013.8 hPa | 0 mm | 0.45 m/s, 7° | - | - |
| 1777965353 | 10° C | 78% | 1013.8 hPa | 0 mm | 0 m/s | - | - |
| 1777964750 | 10° C | 77% | 1013.8 hPa | 0 mm | 0 m/s | - | - |
| 1777964147 | 9.44° C | 78% | 1013.7 hPa | 0 mm | 0 m/s | - | - |
| 1777963545 | 9.44° C | 79% | 1013.8 hPa | 0 mm | 0.45 m/s, 14° | - | - |
| 1777961742 | 8.89° C | 82% | 1014 hPa | 0 mm | 0 m/s | - | - |
| 1777960537 | 8.33° C | 82% | 1014 hPa | 0 mm | 0 m/s | - | - |
| 1777959929 | 7.78° C | 83% | 1013.9 hPa | 0 mm | 0 m/s | - | - |
| 1777955169 | 7.22° C | 83% | 1013.8 hPa | 0 mm | 0 m/s | - | - |
| 1777953964 | 7.22° C | 83% | 1013.9 hPa | 0 mm | 0 m/s | - | - |
| 1777950951 | 7.78° C | 82% | 1014 hPa | 0 mm | 0 m/s | - | - |
| 1777949143 | 8.33° C | 82% | 1014 hPa | 0 mm | 0 m/s | - | - |
| 1777948541 | 8.33° C | 82% | 1014.1 hPa | 0 mm | 0 m/s | - | - |
* Rain latest hour (hover to see other rain measurements)
** Current wind speed in m/s (hover to see current wind gust speed)